Time;durP1;ratioP1;P1;durP2;ratioP2;P2;SDS_P1;SDS_P2;PMS_P1;PMS_P2;Temp;Humidity;BMP_temperature;BMP_pressure;BME280_temperature;BME280_humidity;BME280_pressure;Samples;Min_cycle;Max_cycle;Signal;HPM_P1;HPM_P2
2022/07/23 00:01:23;;;;;;;0.88;0.50;;;26.00;44.50;;;;;;5012171;28;20109;-50
2022/07/23 00:03:51;;;;;;;1.85;0.60;;;25.90;44.40;;;;;;5012486;28;20062;-49
2022/07/23 00:06:17;;;;;;;1.27;0.30;;;25.90;44.40;;;;;;5011990;28;20091;-48
2022/07/23 00:08:43;;;;;;;1.65;0.40;;;25.90;44.40;;;;;;5009796;28;20032;-48
2022/07/23 00:11:09;;;;;;;1.30;0.50;;;25.90;44.50;;;;;;5009339;28;20021;-50
2022/07/23 00:13:35;;;;;;;1.00;0.50;;;25.90;44.50;;;;;;5009801;28;20361;-51
2022/07/23 00:16:01;;;;;;;0.57;0.45;;;25.90;44.50;;;;;;5011654;28;20165;-49
2022/07/23 00:18:27;;;;;;;0.70;0.43;;;25.90;44.50;;;;;;5011671;28;20369;-47
2022/07/23 00:20:52;;;;;;;0.40;0.40;;;25.90;44.50;;;;;;5010919;28;20030;-50
2022/07/23 00:23:18;;;;;;;1.50;0.52;;;25.90;44.60;;;;;;5011621;28;20165;-51
2022/07/23 00:25:45;;;;;;;0.95;0.40;;;25.80;44.50;;;;;;5012037;28;20040;-51
2022/07/23 00:28:11;;;;;;;0.45;0.40;;;25.90;44.60;;;;;;5010933;28;20909;-49
2022/07/23 00:30:37;;;;;;;0.60;0.40;;;25.80;44.60;;;;;;5009556;28;20034;-49
2022/07/23 00:33:06;;;;;;;0.57;0.43;;;25.80;44.60;;;;;;5010071;28;20026;-49
2022/07/23 00:35:35;;;;;;;1.17;0.60;;;25.80;44.60;;;;;;5014108;28;20652;-51
2022/07/23 00:38:02;;;;;;;0.68;0.40;;;25.80;44.70;;;;;;5010444;28;20156;-50
2022/07/23 00:40:29;;;;;;;1.15;0.50;;;25.80;44.60;;;;;;5009699;28;20113;-46
2022/07/23 00:42:54;;;;;;;0.60;0.32;;;25.80;44.70;;;;;;5011647;28;20113;-52
2022/07/23 00:45:21;;;;;;;2.08;0.43;;;25.80;44.70;;;;;;5010621;28;20571;-49
2022/07/23 00:47:47;;;;;;;1.38;0.60;;;25.80;44.70;;;;;;5009163;28;20132;-45
2022/07/23 00:50:13;;;;;;;0.47;0.40;;;25.80;44.70;;;;;;5010285;28;20474;-47
2022/07/23 00:52:41;;;;;;;0.52;0.40;;;25.80;44.80;;;;;;5010575;28;20064;-47
2022/07/23 00:55:09;;;;;;;0.73;0.47;;;25.80;44.80;;;;;;5010770;28;20045;-47
2022/07/23 00:57:36;;;;;;;0.77;0.40;;;25.70;44.70;;;;;;5009672;28;20128;-47
2022/07/23 01:00:04;;;;;;;1.35;0.40;;;25.70;44.70;;;;;;5011048;28;20498;-48
2022/07/23 01:02:30;;;;;;;0.82;0.40;;;25.70;44.70;;;;;;5011324;28;20029;-46
2022/07/23 01:04:56;;;;;;;0.90;0.47;;;25.80;44.80;;;;;;5011063;28;20037;-50
2022/07/23 01:07:22;;;;;;;1.00;0.50;;;25.70;44.80;;;;;;5009924;28;20033;-49
2022/07/23 01:09:50;;;;;;;0.88;0.55;;;25.70;44.80;;;;;;5009082;28;20041;-50
2022/07/23 01:12:16;;;;;;;0.63;0.40;;;25.70;44.80;;;;;;5009691;28;20026;-52
2022/07/23 01:14:42;;;;;;;1.75;0.70;;;25.70;44.80;;;;;;5009974;28;20036;-46
2022/07/23 01:17:07;;;;;;;0.93;0.40;;;25.70;44.90;;;;;;5008282;28;20042;-46
2022/07/23 01:19:33;;;;;;;2.00;0.57;;;25.70;44.90;;;;;;5010341;28;20132;-46
2022/07/23 01:22:02;;;;;;;1.20;0.50;;;25.70;44.80;;;;;;5008826;28;20022;-47
2022/07/23 01:24:29;;;;;;;1.00;0.50;;;25.60;44.80;;;;;;5024743;28;20033;-51
2022/07/23 01:27:05;;;;;;;0.80;0.50;;;25.70;44.90;;;;;;5009478;28;20033;-50
2022/07/23 01:29:35;;;;;;;1.10;0.57;;;25.60;44.80;;;;;;5006419;28;20034;-46
2022/07/23 01:32:05;;;;;;;2.28;0.40;;;25.60;44.80;;;;;;5009641;28;20022;-50
2022/07/23 01:34:31;;;;;;;0.85;0.40;;;25.60;44.80;;;;;;5009530;28;20396;-49
2022/07/23 01:36:57;;;;;;;0.75;0.40;;;25.60;45.40;;;;;;5008455;28;20459;-49
2022/07/23 01:39:23;;;;;;;1.77;0.50;;;25.60;44.80;;;;;;4999678;28;20534;-48
2022/07/23 01:41:50;;;;;;;0.57;0.40;;;25.60;44.80;;;;;;5009294;28;20084;-45
2022/07/23 01:44:16;;;;;;;0.55;0.30;;;25.60;44.90;;;;;;5004358;28;20076;-50
2022/07/23 01:46:42;;;;;;;1.35;0.60;;;25.60;44.90;;;;;;5007237;28;20412;-46
2022/07/23 01:49:08;;;;;;;0.80;0.47;;;25.60;44.90;;;;;;5011504;28;20472;-48
2022/07/23 01:52:00;;;;;;;1.80;0.52;;;25.60;44.90;;;;;;5009238;28;20103;-47
2022/07/23 01:54:30;;;;;;;1.23;0.47;;;25.50;44.80;;;;;;5007682;28;20049;-45
2022/07/23 01:56:58;;;;;;;0.75;0.40;;;25.60;44.90;;;;;;5009001;28;20441;-46
2022/07/23 01:59:24;;;;;;;0.88;0.57;;;25.50;44.90;;;;;;5010442;28;20045;-45
2022/07/23 02:01:50;;;;;;;1.17;0.40;;;25.50;44.80;;;;;;5008713;28;20030;-45
2022/07/23 02:04:20;;;;;;;1.15;0.50;;;25.50;44.90;;;;;;5009673;28;20338;-46
2022/07/23 02:06:47;;;;;;;0.70;0.20;;;25.50;44.80;;;;;;5013121;28;20042;-46
2022/07/23 02:09:13;;;;;;;0.85;0.47;;;25.50;44.90;;;;;;5012671;28;20040;-49
2022/07/23 02:11:39;;;;;;;0.77;0.40;;;25.50;44.90;;;;;;5013166;28;20030;-46
2022/07/23 02:14:05;;;;;;;0.50;0.40;;;25.40;44.80;;;;;;5014269;28;20101;-46
2022/07/23 02:16:31;;;;;;;1.65;0.50;;;25.40;44.80;;;;;;5013996;28;20030;-45
2022/07/23 02:19:02;;;;;;;1.30;0.50;;;25.40;44.80;;;;;;5013522;28;20096;-51
2022/07/23 02:21:28;;;;;;;0.75;0.38;;;25.40;44.80;;;;;;5012222;28;20030;-49
2022/07/23 02:23:53;;;;;;;0.90;0.40;;;25.40;44.80;;;;;;5014214;28;20091;-50
2022/07/23 02:26:19;;;;;;;0.90;0.50;;;25.40;44.80;;;;;;5013011;28;20026;-47
2022/07/23 02:28:46;;;;;;;0.70;0.50;;;25.40;44.80;;;;;;4999101;28;20025;-53
2022/07/23 02:31:12;;;;;;;0.40;0.30;;;25.40;44.80;;;;;;5010997;28;20079;-52
2022/07/23 02:33:38;;;;;;;0.40;0.35;;;25.40;44.80;;;;;;5013387;28;20079;-50
2022/07/23 02:36:04;;;;;;;0.90;0.35;;;25.40;44.80;;;;;;5012708;28;20026;-49
2022/07/23 02:38:30;;;;;;;0.70;0.40;;;25.30;44.70;;;;;;5013466;28;20065;-52
2022/07/23 02:40:56;;;;;;;0.63;0.40;;;25.40;44.80;;;;;;5009733;28;20041;-48
2022/07/23 02:43:22;;;;;;;1.00;0.40;;;25.30;44.70;;;;;;5013283;28;20041;-46
2022/07/23 02:45:48;;;;;;;1.00;0.40;;;25.30;44.70;;;;;;5014382;28;20476;-52
2022/07/23 02:48:14;;;;;;;0.35;0.30;;;25.30;44.70;;;;;;4998388;28;20029;-52
2022/07/23 02:50:42;;;;;;;2.35;0.57;;;25.30;44.70;;;;;;5009751;28;20547;-50
2022/07/23 02:53:08;;;;;;;0.68;0.40;;;25.30;44.70;;;;;;5010975;28;20065;-49
2022/07/23 02:55:34;;;;;;;1.08;0.40;;;25.30;44.70;;;;;;5011638;28;20349;-47
2022/07/23 02:58:02;;;;;;;1.40;0.52;;;25.30;44.70;;;;;;5012556;28;20817;-50
2022/07/23 03:00:28;;;;;;;0.40;0.40;;;25.30;44.70;;;;;;5027822;28;20030;-50
2022/07/23 03:02:54;;;;;;;0.75;0.35;;;25.30;44.80;;;;;;5011757;28;20120;-47
2022/07/23 03:05:20;;;;;;;1.10;0.40;;;25.30;44.70;;;;;;5013282;28;20184;-44
2022/07/23 03:07:45;;;;;;;1.38;0.50;;;25.20;44.70;;;;;;5013335;28;20034;-50
2022/07/23 03:10:11;;;;;;;0.70;0.40;;;25.20;44.70;;;;;;5012229;28;20056;-51
2022/07/23 03:12:37;;;;;;;1.00;0.30;;;25.20;44.70;;;;;;5011692;28;20036;-49
2022/07/23 03:15:03;;;;;;;1.00;0.40;;;25.20;44.70;;;;;;5013179;28;20030;-46
2022/07/23 03:17:29;;;;;;;0.65;0.35;;;25.20;44.70;;;;;;5010292;28;20536;-49
2022/07/23 03:19:55;;;;;;;0.35;0.35;;;25.20;44.70;;;;;;5013075;28;20128;-49
2022/07/23 03:22:23;;;;;;;1.58;0.50;;;25.20;44.70;;;;;;5009172;28;20419;-47
2022/07/23 03:24:54;;;;;;;0.77;0.40;;;25.20;44.70;;;;;;5011649;28;20038;-48
2022/07/23 03:27:29;;;;;;;1.58;0.40;;;25.10;44.70;;;;;;5011239;28;20037;-46
2022/07/23 03:29:57;;;;;;;1.50;0.32;;;25.10;44.60;;;;;;5012609;28;20041;-49
2022/07/23 03:32:23;;;;;;;2.75;0.50;;;25.10;44.70;;;;;;5011558;28;20465;-49
2022/07/23 03:34:50;;;;;;;1.10;0.43;;;25.10;44.70;;;;;;5026305;28;20105;-51
2022/07/23 03:37:17;;;;;;;1.33;0.47;;;25.10;44.70;;;;;;5012120;28;20042;-50
2022/07/23 03:39:43;;;;;;;0.77;0.40;;;25.10;44.70;;;;;;5002201;28;20025;-45
2022/07/23 03:42:09;;;;;;;0.90;0.30;;;25.10;44.70;;;;;;5011047;28;20172;-46
2022/07/23 03:44:36;;;;;;;0.45;0.20;;;25.10;44.70;;;;;;5011066;28;20057;-48
2022/07/23 03:47:03;;;;;;;0.77;0.30;;;25.10;44.70;;;;;;5009252;28;20032;-49
2022/07/23 03:49:29;;;;;;;1.27;0.50;;;25.10;44.70;;;;;;5011378;28;20468;-49
2022/07/23 03:51:55;;;;;;;0.95;0.43;;;25.10;44.70;;;;;;5010388;28;20029;-45
2022/07/23 03:54:21;;;;;;;1.02;0.55;;;25.00;44.60;;;;;;5010873;28;20532;-48
2022/07/23 03:56:47;;;;;;;0.75;0.50;;;25.00;44.60;;;;;;5011369;28;20038;-46
2022/07/23 03:59:12;;;;;;;0.50;0.30;;;25.00;44.60;;;;;;5010880;28;20369;-49
2022/07/23 04:01:38;;;;;;;0.32;0.32;;;25.00;44.60;;;;;;5010736;28;20044;-48
2022/07/23 04:04:04;;;;;;;1.15;0.30;;;25.00;44.60;;;;;;5012168;28;20429;-46
2022/07/23 04:06:30;;;;;;;0.68;0.38;;;25.00;44.60;;;;;;5011131;28;20041;-48
2022/07/23 04:08:58;;;;;;;1.20;0.60;;;25.00;44.60;;;;;;5011579;28;20033;-44
2022/07/23 04:11:24;;;;;;;0.35;0.30;;;25.00;44.60;;;;;;5011764;28;20475;-51
2022/07/23 04:13:50;;;;;;;0.63;0.30;;;25.00;44.60;;;;;;5025751;28;20120;-48
2022/07/23 04:16:16;;;;;;;1.73;0.40;;;25.00;44.60;;;;;;5010824;28;20053;-49
2022/07/23 04:18:42;;;;;;;0.45;0.30;;;25.00;44.60;;;;;;5011204;28;20077;-46
2022/07/23 04:21:16;;;;;;;0.90;0.60;;;25.00;44.60;;;;;;5009723;28;20556;-48
2022/07/23 04:23:44;;;;;;;0.98;0.40;;;25.00;44.60;;;;;;5011458;28;20022;-51
2022/07/23 04:26:10;;;;;;;1.58;0.52;;;25.00;44.70;;;;;;5009758;28;20022;-49
2022/07/23 04:28:36;;;;;;;0.60;0.28;;;25.00;44.70;;;;;;5008370;28;20041;-49
2022/07/23 04:31:03;;;;;;;1.02;0.30;;;25.00;44.70;;;;;;5007166;28;20025;-51
2022/07/23 04:33:30;;;;;;;0.40;0.30;;;25.00;44.70;;;;;;5011107;28;20036;-49
2022/07/23 04:35:57;;;;;;;1.65;0.50;;;24.90;44.60;;;;;;5002443;28;20034;-47
2022/07/23 04:38:23;;;;;;;0.50;0.38;;;24.90;44.60;;;;;;5011306;28;20048;-49
2022/07/23 04:40:52;;;;;;;1.45;0.40;;;24.90;44.70;;;;;;5010182;28;20030;-46
2022/07/23 04:43:19;;;;;;;1.27;0.43;;;24.90;44.70;;;;;;5009911;28;20038;-51
2022/07/23 04:45:47;;;;;;;0.40;0.30;;;24.90;44.70;;;;;;5010187;28;20033;-49
2022/07/23 04:48:13;;;;;;;0.57;0.30;;;24.90;44.70;;;;;;5008397;28;20519;-51
2022/07/23 04:50:40;;;;;;;0.50;0.40;;;24.90;44.70;;;;;;5010680;28;20357;-50
2022/07/23 04:53:14;;;;;;;0.68;0.30;;;24.90;44.70;;;;;;5010375;28;20092;-50
2022/07/23 04:55:40;;;;;;;1.20;0.40;;;24.90;44.70;;;;;;5007367;28;20419;-48
2022/07/23 04:58:06;;;;;;;0.77;0.50;;;24.90;44.70;;;;;;5010311;28;20038;-48
2022/07/23 05:00:32;;;;;;;0.63;0.50;;;24.90;44.70;;;;;;5011291;28;20054;-49
2022/07/23 05:02:58;;;;;;;0.77;0.30;;;24.90;44.80;;;;;;5008858;28;20029;-49
2022/07/23 05:05:24;;;;;;;1.00;0.38;;;24.90;44.70;;;;;;5010997;28;20036;-51
2022/07/23 05:07:52;;;;;;;1.88;0.40;;;24.90;44.70;;;;;;5009772;28;20022;-48
2022/07/23 05:10:18;;;;;;;1.67;0.40;;;24.80;44.70;;;;;;5002154;28;20029;-50
2022/07/23 05:12:44;;;;;;;1.23;0.35;;;24.80;44.70;;;;;;5009058;28;20022;-52
2022/07/23 05:15:10;;;;;;;0.80;0.45;;;24.90;44.80;;;;;;5010026;28;20053;-47
2022/07/23 05:17:36;;;;;;;1.25;0.40;;;24.90;44.80;;;;;;5009743;28;20050;-49
2022/07/23 05:20:08;;;;;;;1.10;0.40;;;24.90;44.80;;;;;;5009563;28;20050;-47
2022/07/23 05:22:34;;;;;;;0.57;0.32;;;24.90;44.80;;;;;;5008858;28;20036;-49
2022/07/23 05:25:00;;;;;;;1.55;0.50;;;24.90;44.80;;;;;;5009514;28;20029;-51
2022/07/23 05:27:26;;;;;;;1.20;0.20;;;24.90;44.90;;;;;;5011230;28;20424;-51
2022/07/23 05:29:52;;;;;;;0.90;0.43;;;24.90;44.90;;;;;;4998567;28;20056;-45
2022/07/23 05:32:17;;;;;;;1.02;0.32;;;24.90;44.90;;;;;;5009355;28;20030;-47
2022/07/23 05:34:51;;;;;;;0.60;0.40;;;24.80;44.80;;;;;;5009790;28;20452;-48
2022/07/23 05:37:17;;;;;;;1.98;0.50;;;24.80;44.80;;;;;;5008859;28;20033;-49
2022/07/23 05:39:43;;;;;;;0.95;0.30;;;24.80;44.90;;;;;;5008251;28;20512;-50
2022/07/23 05:42:09;;;;;;;1.30;0.43;;;24.80;44.90;;;;;;5007577;28;20025;-52
2022/07/23 05:44:34;;;;;;;1.13;0.40;;;24.90;45.00;;;;;;5009964;28;20088;-48
2022/07/23 05:47:01;;;;;;;1.17;0.40;;;24.80;44.90;;;;;;5009237;28;20432;-47
2022/07/23 05:49:28;;;;;;;0.93;0.32;;;24.80;44.90;;;;;;5008989;28;20472;-51
2022/07/23 05:52:09;;;;;;;1.20;0.50;;;24.80;45.00;;;;;;4999445;28;20339;-52
2022/07/23 05:55:00;;;;;;;1.23;0.57;;;24.80;45.00;;;;;;5006706;28;20436;-49
2022/07/23 05:57:25;;;;;;;1.58;0.65;;;24.80;45.00;;;;;;5009582;28;20046;-51
2022/07/23 05:59:51;;;;;;;2.33;0.60;;;24.80;45.00;;;;;;5006584;28;20463;-51
2022/07/23 06:02:17;;;;;;;0.93;0.50;;;24.80;45.10;;;;;;5010271;28;20018;-50
2022/07/23 06:04:43;;;;;;;2.03;0.40;;;24.80;45.10;;;;;;5008953;28;20033;-48
2022/07/23 06:07:20;;;;;;;1.10;0.30;;;24.80;45.10;;;;;;5009102;28;20032;-46
2022/07/23 06:09:46;;;;;;;2.00;0.50;;;24.80;45.10;;;;;;5008718;28;20041;-52
2022/07/23 06:12:13;;;;;;;1.27;0.35;;;24.80;45.10;;;;;;5009300;28;20064;-45
2022/07/23 06:14:38;;;;;;;0.45;0.30;;;24.80;45.20;;;;;;5009474;28;20219;-45
2022/07/23 06:17:04;;;;;;;1.15;0.47;;;24.80;45.20;;;;;;5007388;28;20021;-48
2022/07/23 06:19:31;;;;;;;1.20;0.40;;;24.80;45.10;;;;;;5008357;28;20037;-51
2022/07/23 06:21:56;;;;;;;0.95;0.50;;;24.80;45.10;;;;;;5009096;28;20345;-52
2022/07/23 06:24:22;;;;;;;1.52;0.50;;;24.80;45.10;;;;;;5007543;28;20026;-51
2022/07/23 06:26:49;;;;;;;1.08;0.50;;;24.80;45.10;;;;;;5008390;28;20018;-50
2022/07/23 06:29:15;;;;;;;2.60;0.60;;;24.80;45.20;;;;;;5010036;28;20026;-50
2022/07/23 06:31:41;;;;;;;0.80;0.50;;;24.80;45.20;;;;;;5008960;28;20145;-49
2022/07/23 06:34:07;;;;;;;3.05;0.50;;;24.80;45.20;;;;;;5011786;28;20117;-47
2022/07/23 06:36:35;;;;;;;0.70;0.32;;;24.80;45.20;;;;;;5007606;28;20127;-46
2022/07/23 06:39:01;;;;;;;0.73;0.47;;;24.80;45.20;;;;;;5009762;28;20430;-44
2022/07/23 06:41:27;;;;;;;0.85;0.60;;;24.80;45.20;;;;;;5009435;28;20033;-45
2022/07/23 06:43:52;;;;;;;0.60;0.30;;;24.80;45.20;;;;;;4995077;28;20037;-49
2022/07/23 06:46:21;;;;;;;0.55;0.30;;;24.80;45.20;;;;;;5007008;28;20026;-49
2022/07/23 06:48:48;;;;;;;1.52;0.50;;;24.80;45.20;;;;;;4998986;28;20026;-50
2022/07/23 06:51:14;;;;;;;0.60;0.40;;;24.80;45.20;;;;;;5009710;28;20023;-47
2022/07/23 06:53:41;;;;;;;2.25;0.50;;;24.80;45.20;;;;;;5014178;28;20048;-46
2022/07/23 06:56:09;;;;;;;0.68;0.40;;;24.80;45.20;;;;;;5017979;28;20026;-47
2022/07/23 06:58:37;;;;;;;1.02;0.40;;;24.80;45.20;;;;;;5010636;28;20022;-49
2022/07/23 07:01:10;;;;;;;0.82;0.30;;;24.80;45.20;;;;;;5016484;28;20026;-48
2022/07/23 07:03:37;;;;;;;0.80;0.60;;;24.80;45.20;;;;;;5017408;28;20102;-51
2022/07/23 07:06:03;;;;;;;1.13;0.40;;;24.80;45.10;;;;;;5014904;28;20105;-50
2022/07/23 07:08:28;;;;;;;0.95;0.40;;;24.80;45.10;;;;;;5013134;28;20368;-51
2022/07/23 07:10:54;;;;;;;0.45;0.30;;;24.80;45.10;;;;;;5009900;28;20052;-52
2022/07/23 07:13:20;;;;;;;0.93;0.40;;;24.80;45.20;;;;;;5006995;28;20022;-47
2022/07/23 07:15:46;;;;;;;2.53;0.40;;;24.80;45.20;;;;;;5005009;28;20030;-52
2022/07/23 07:18:12;;;;;;;1.42;0.40;;;24.80;45.20;;;;;;5012764;28;20066;-52
2022/07/23 07:20:40;;;;;;;0.88;0.40;;;24.80;45.20;;;;;;5016372;28;20475;-49
2022/07/23 07:23:06;;;;;;;0.63;0.28;;;24.80;45.10;;;;;;5014583;28;20050;-49
2022/07/23 07:25:32;;;;;;;0.98;0.55;;;24.80;45.10;;;;;;5013652;28;20449;-52
2022/07/23 07:27:58;;;;;;;3.58;0.52;;;24.80;45.10;;;;;;5012501;28;20022;-48
2022/07/23 07:30:24;;;;;;;0.82;0.40;;;24.80;45.10;;;;;;5012313;28;20409;-52
2022/07/23 07:32:51;;;;;;;3.72;0.30;;;24.90;45.10;;;;;;5017376;28;20476;-44
2022/07/23 07:35:18;;;;;;;0.98;0.55;;;24.90;45.00;;;;;;5014728;28;20021;-52
2022/07/23 07:37:44;;;;;;;1.33;0.57;;;24.90;45.00;;;;;;5010428;28;20039;-50
2022/07/23 07:40:10;;;;;;;1.05;0.65;;;24.90;45.00;;;;;;4997770;28;20129;-51
2022/07/23 07:42:53;;;;;;;2.90;0.80;;;24.90;44.90;;;;;;5000863;28;20034;-48
2022/07/23 07:45:24;;;;;;;0.85;0.50;;;25.00;44.90;;;;;;5008663;28;20041;-52
2022/07/23 07:47:52;;;;;;;2.33;0.60;;;24.90;44.90;;;;;;5017189;28;20330;-50
2022/07/23 07:50:19;;;;;;;1.00;0.40;;;25.00;44.80;;;;;;5016919;28;20441;-49
2022/07/23 07:52:45;;;;;;;0.85;0.50;;;25.00;44.80;;;;;;5008549;28;20030;-50
2022/07/23 07:55:12;;;;;;;1.23;0.60;;;25.00;44.80;;;;;;5015627;28;20111;-46
2022/07/23 07:57:39;;;;;;;0.80;0.50;;;25.00;44.70;;;;;;5012729;28;20038;-48
2022/07/23 08:00:07;;;;;;;0.90;0.50;;;25.00;44.70;;;;;;5005162;28;20040;-50
2022/07/23 08:02:45;;;;;;;1.55;0.80;;;25.00;44.60;;;;;;5012636;28;20117;-49
2022/07/23 08:05:12;;;;;;;1.75;0.63;;;25.00;44.60;;;;;;5009347;28;20129;-43
2022/07/23 08:07:39;;;;;;;0.65;0.40;;;25.00;44.50;;;;;;5015699;28;20389;-46
2022/07/23 08:10:09;;;;;;;1.67;0.60;;;25.00;44.50;;;;;;5012015;28;20022;-52
2022/07/23 08:12:47;;;;;;;0.82;0.40;;;25.00;44.50;;;;;;5010222;28;20452;-50
2022/07/23 08:15:14;;;;;;;0.80;0.40;;;25.00;44.40;;;;;;5012327;28;20068;-49
2022/07/23 08:17:41;;;;;;;0.55;0.22;;;25.00;44.30;;;;;;5011324;28;20360;-49
2022/07/23 08:20:08;;;;;;;0.90;0.40;;;25.10;44.30;;;;;;5010244;28;20080;-51
2022/07/23 08:22:49;;;;;;;1.10;0.32;;;25.10;44.90;;;;;;5014885;28;20030;-50
2022/07/23 08:25:19;;;;;;;0.75;0.50;;;25.10;44.20;;;;;;5012255;28;20786;-50
2022/07/23 08:27:45;;;;;;;0.40;0.30;;;25.10;44.10;;;;;;5011001;28;20034;-46
2022/07/23 08:30:11;;;;;;;0.25;0.25;;;25.10;44.00;;;;;;5011169;28;20026;-52
2022/07/23 08:33:03;;;;;;;1.75;0.50;;;25.10;43.90;;;;;;5011212;28;20048;-49
2022/07/23 08:35:34;;;;;;;1.48;0.40;;;25.10;43.80;;;;;;5008669;28;20037;-49
2022/07/23 08:38:03;;;;;;;1.50;0.40;;;25.20;43.80;;;;;;5010436;28;20073;-46
2022/07/23 08:40:31;;;;;;;1.63;0.50;;;25.20;43.70;;;;;;5010615;28;20025;-48
2022/07/23 08:42:57;;;;;;;1.38;0.43;;;25.20;43.60;;;;;;5009619;28;20042;-50
2022/07/23 08:45:24;;;;;;;2.33;0.60;;;25.20;43.70;;;;;;5011330;28;20097;-51
2022/07/23 08:47:53;;;;;;;1.38;0.60;;;25.20;43.80;;;;;;5011199;28;20109;-49
2022/07/23 08:50:20;;;;;;;1.90;0.70;;;25.20;43.90;;;;;;5009493;28;20076;-49
2022/07/23 08:52:49;;;;;;;2.60;0.80;;;25.20;44.00;;;;;;5010052;28;20029;-50
2022/07/23 08:55:17;;;;;;;1.40;1.00;;;25.20;44.10;;;;;;5012330;28;20069;-49
2022/07/23 08:57:43;;;;;;;2.15;1.15;;;25.20;44.10;;;;;;5013833;28;20052;-50
2022/07/23 09:00:09;;;;;;;0.95;0.63;;;25.20;44.10;;;;;;5008044;28;20022;-51
2022/07/23 09:02:43;;;;;;;1.80;0.90;;;25.20;44.10;;;;;;5011122;28;20064;-51
2022/07/23 09:05:11;;;;;;;;;;;25.20;44.20;;;;;;5008434;28;20041;-45
2022/07/23 09:07:37;;;;;;;2.15;0.70;;;25.20;44.20;;;;;;5010564;28;21356;-51
2022/07/23 09:10:11;;;;;;;0.98;0.70;;;25.20;44.20;;;;;;5009104;28;20465;-47
2022/07/23 09:12:37;;;;;;;1.20;0.50;;;25.20;44.20;;;;;;5006650;28;20030;-50
2022/07/23 09:15:08;;;;;;;3.03;0.57;;;25.20;44.20;;;;;;5009688;28;20104;-50
2022/07/23 09:17:42;;;;;;;0.80;0.60;;;25.20;44.20;;;;;;5008430;28;20041;-52
2022/07/23 09:20:15;;;;;;;1.08;0.60;;;25.20;44.20;;;;;;5009288;28;20031;-51
2022/07/23 09:22:46;;;;;;;1.23;0.55;;;25.20;44.20;;;;;;5009773;28;20029;-51
2022/07/23 09:25:19;;;;;;;0.85;0.50;;;25.20;44.10;;;;;;5010858;28;20045;-45
2022/07/23 09:27:49;;;;;;;0.95;0.50;;;25.30;44.10;;;;;;5011736;28;20515;-50
2022/07/23 09:30:15;;;;;;;1.50;0.52;;;25.30;44.00;;;;;;5010008;28;20437;-47
2022/07/23 09:32:41;;;;;;;0.80;0.50;;;25.30;44.00;;;;;;5010267;28;20026;-47
2022/07/23 09:35:07;;;;;;;0.65;0.40;;;25.30;43.90;;;;;;5011330;28;20033;-49
2022/07/23 09:37:34;;;;;;;1.45;0.65;;;25.40;43.90;;;;;;5011819;28;20818;-46
2022/07/23 09:40:13;;;;;;;1.13;0.50;;;25.40;43.80;;;;;;5008464;28;20029;-49
2022/07/23 09:42:38;;;;;;;1.05;0.40;;;25.40;43.70;;;;;;5010533;28;20034;-49
2022/07/23 09:45:12;;;;;;;1.27;0.40;;;25.40;43.60;;;;;;5009339;28;20479;-49
2022/07/23 09:47:37;;;;;;;1.25;0.45;;;25.40;43.40;;;;;;5008895;28;20483;-47
2022/07/23 09:50:06;;;;;;;0.68;0.30;;;25.40;43.30;;;;;;5010562;28;20030;-47
2022/07/23 09:52:42;;;;;;;0.70;0.40;;;25.40;43.20;;;;;;5008466;28;20369;-45
2022/07/23 09:55:08;;;;;;;1.15;0.50;;;25.40;43.10;;;;;;5010199;28;20167;-48
2022/07/23 09:57:34;;;;;;;1.02;0.50;;;25.40;42.90;;;;;;5010546;28;20052;-48
2022/07/23 10:00:10;;;;;;;0.85;0.45;;;25.40;42.80;;;;;;5010723;28;20177;-50
2022/07/23 10:02:37;;;;;;;0.57;0.40;;;25.40;42.70;;;;;;5012138;28;20057;-49
2022/07/23 10:05:30;;;;;;;0.93;0.50;;;25.50;42.90;;;;;;4987881;28;21846;-49
2022/07/23 10:08:26;;;;;;;1.40;0.82;;;25.50;42.90;;;;;;5009306;28;20030;-47
2022/07/23 10:11:12;;;;;;;1.45;0.88;;;25.50;42.80;;;;;;5009594;28;20045;-46
2022/07/23 10:16:17;;;;;;;1.35;1.00;;;25.50;43.30;;;;;;4999035;28;20049;-47
2022/07/23 10:18:44;;;;;;;1.90;1.05;;;25.50;42.60;;;;;;5007893;28;20049;-50
2022/07/23 10:21:11;;;;;;;2.35;1.20;;;25.60;42.70;;;;;;5009433;28;20116;-49
2022/07/23 10:23:48;;;;;;;1.95;1.02;;;25.60;42.70;;;;;;5010100;28;20045;-49
2022/07/23 10:26:35;;;;;;;1.58;0.90;;;25.60;42.60;;;;;;5012309;28;20337;-51
2022/07/23 10:29:25;;;;;;;0.85;0.50;;;25.60;42.50;;;;;;5015040;28;20037;-45
2022/07/23 10:32:02;;;;;;;0.90;0.70;;;25.70;42.50;;;;;;5013476;28;20029;-50
2022/07/23 10:34:37;;;;;;;0.85;0.70;;;25.60;42.50;;;;;;5011963;28;20022;-48
2022/07/23 10:37:24;;;;;;;1.17;0.50;;;25.70;42.60;;;;;;5014094;28;20026;-49
2022/07/23 10:40:14;;;;;;;0.85;0.63;;;25.70;42.70;;;;;;5012366;28;20092;-46
2022/07/23 10:42:41;;;;;;;1.33;0.75;;;25.80;43.10;;;;;;5011032;28;20034;-46
2022/07/23 10:45:36;;;;;;;0.70;0.60;;;25.80;43.10;;;;;;5013784;28;20045;-47
2022/07/23 10:48:13;;;;;;;1.60;0.52;;;25.80;42.90;;;;;;5015718;28;20025;-50
2022/07/23 10:50:40;;;;;;;1.15;0.60;;;25.80;42.70;;;;;;5011559;28;20091;-47
2022/07/23 10:53:08;;;;;;;0.95;0.60;;;25.80;42.70;;;;;;5011526;28;20093;-51
2022/07/23 10:55:34;;;;;;;2.72;0.70;;;25.80;42.70;;;;;;5010054;28;20096;-53
2022/07/23 10:58:05;;;;;;;2.30;0.80;;;25.90;42.90;;;;;;5013261;28;20446;-56
2022/07/23 11:00:36;;;;;;;1.45;0.60;;;25.90;42.80;;;;;;5013290;28;20026;-57
2022/07/23 11:03:08;;;;;;;1.65;0.70;;;25.90;42.80;;;;;;5008631;28;20464;-56
2022/07/23 11:05:43;;;;;;;0.70;0.60;;;26.00;42.80;;;;;;5015480;28;20369;-55
2022/07/23 11:08:12;;;;;;;1.75;0.90;;;26.10;42.80;;;;;;5010840;28;20030;-55
2022/07/23 11:10:41;;;;;;;0.40;0.40;;;26.20;42.70;;;;;;5011885;28;20025;-51
2022/07/23 11:13:22;;;;;;;0.90;0.50;;;26.30;42.50;;;;;;5012112;28;20030;-58
2022/07/23 11:16:16;;;;;;;1.98;0.60;;;26.40;42.40;;;;;;5013874;28;20467;-57
2022/07/23 11:18:43;;;;;;;1.65;0.60;;;26.60;42.30;;;;;;5012279;28;20038;-55
2022/07/23 11:21:28;;;;;;;1.88;0.75;;;26.60;42.20;;;;;;5030993;28;20124;-56
2022/07/23 11:23:58;;;;;;;0.70;0.52;;;26.80;42.30;;;;;;5013482;28;20357;-57
2022/07/23 11:26:55;;;;;;;1.20;0.60;;;26.90;42.20;;;;;;5014582;28;20095;-57
2022/07/23 11:29:30;;;;;;;1.17;0.50;;;27.00;42.20;;;;;;5013362;28;20406;-53
2022/07/23 11:32:22;;;;;;;1.55;0.60;;;27.10;42.10;;;;;;5014334;28;20038;-54
2022/07/23 11:34:51;;;;;;;1.00;0.47;;;27.20;42.00;;;;;;5016948;28;20038;-59
2022/07/23 11:37:34;;;;;;;1.05;0.65;;;27.30;41.90;;;;;;5011436;28;20053;-52
2022/07/23 11:40:02;;;;;;;1.70;0.80;;;27.40;41.80;;;;;;5013879;28;20040;-53
2022/07/23 11:42:28;;;;;;;2.42;0.90;;;27.50;41.70;;;;;;5010384;28;20029;-54
2022/07/23 11:44:54;;;;;;;1.40;1.08;;;27.60;41.60;;;;;;5018488;28;20025;-54
2022/07/23 11:47:26;;;;;;;1.42;1.05;;;27.60;41.40;;;;;;5014089;28;20348;-57
2022/07/23 11:49:57;;;;;;;1.50;1.20;;;27.70;41.30;;;;;;5017194;28;20353;-55
2022/07/23 11:52:24;;;;;;;1.98;1.73;;;27.80;41.20;;;;;;5013990;28;20341;-56
2022/07/23 11:54:56;;;;;;;2.38;2.03;;;27.90;41.10;;;;;;5011533;28;20069;-57
2022/07/23 11:57:28;;;;;;;2.30;2.03;;;27.90;41.00;;;;;;5013361;28;20108;-57
2022/07/23 12:00:00;;;;;;;3.60;2.08;;;28.00;40.90;;;;;;5014618;28;20353;-56
2022/07/23 12:02:26;;;;;;;4.70;2.95;;;28.00;40.80;;;;;;5016935;28;20040;-56
2022/07/23 12:04:53;;;;;;;3.80;2.88;;;28.00;40.50;;;;;;5016608;28;20349;-55
2022/07/23 12:07:24;;;;;;;3.67;2.92;;;28.10;40.40;;;;;;5011903;28;20118;-56
2022/07/23 12:09:50;;;;;;;4.15;3.50;;;28.10;40.30;;;;;;5016597;28;20018;-52
2022/07/23 12:12:16;;;;;;;3.85;3.22;;;28.20;40.10;;;;;;5013428;28;20108;-57
2022/07/23 12:15:09;;;;;;;5.88;3.38;;;28.20;40.00;;;;;;5013781;28;20445;-58
2022/07/23 12:17:37;;;;;;;6.07;4.10;;;28.20;39.90;;;;;;5011878;28;20038;-59
2022/07/23 12:20:06;;;;;;;6.88;4.82;;;28.30;40.20;;;;;;5014879;28;20030;-55
2022/07/23 12:22:42;;;;;;;6.18;5.10;;;28.30;40.20;;;;;;5019561;28;20449;-58
2022/07/23 12:25:15;;;;;;;6.63;5.47;;;28.30;40.40;;;;;;5014428;28;20445;-57
2022/07/23 12:27:42;;;;;;;6.95;6.25;;;28.40;40.60;;;;;;5012329;28;21040;-52
2022/07/23 12:30:19;;;;;;;8.55;6.93;;;28.50;40.70;;;;;;5016106;28;20025;-57
2022/07/23 12:32:47;;;;;;;9.30;8.30;;;28.50;40.70;;;;;;5017320;28;20038;-57
2022/07/23 12:35:13;;;;;;;9.38;8.40;;;28.50;40.80;;;;;;5013785;28;20092;-64
2022/07/23 12:37:42;;;;;;;9.65;8.65;;;28.60;41.00;;;;;;5012613;28;20037;-59
2022/07/23 12:40:34;;;;;;;10.02;8.75;;;28.60;41.10;;;;;;5012457;28;20029;-64
2022/07/23 12:43:06;;;;;;;9.57;8.57;;;28.60;41.30;;;;;;5014242;28;20087;-59
2022/07/23 12:45:52;;;;;;;10.82;8.52;;;28.70;41.40;;;;;;5012311;28;20048;-60
2022/07/23 12:48:26;;;;;;;11.02;8.57;;;28.70;41.20;;;;;;5015779;28;20021;-63
2022/07/23 12:50:55;;;;;;;11.48;10.27;;;28.70;41.10;;;;;;5011959;28;20040;-58
2022/07/23 12:53:33;;;;;;;13.20;11.80;;;28.70;40.90;;;;;;5008637;28;20492;-61
2022/07/23 12:56:01;;;;;;;13.80;12.43;;;28.80;40.90;;;;;;5008349;28;20060;-63
2022/07/23 12:58:39;;;;;;;12.98;11.73;;;28.80;40.80;;;;;;5007982;28;20038;-60